Time;durP1;ratioP1;P1;durP2;ratioP2;P2;SDS_P1;SDS_P2;PMS_P1;PMS_P2;Temp;Humidity;BMP_temperature;BMP_pressure;BME280_temperature;BME280_humidity;BME280_pressure;Samples;Min_cycle;Max_cycle;Signal;HPM_P1;HPM_P2
2022/01/18 00:00:04;;;;;;;15.43;3.05;;;;;;;;;;5048060;28;20049;-58
2022/01/18 00:02:31;;;;;;;22.33;3.70;;;;;;;;;;5048818;28;20048;-54
2022/01/18 00:04:58;;;;;;;16.70;2.75;;;;;;;;;;5047436;28;20076;-58
2022/01/18 00:07:24;;;;;;;13.63;2.67;;;;;;;;;;5047439;28;20063;-51
2022/01/18 00:09:51;;;;;;;18.48;2.45;;;;;;;;;;5047664;28;20041;-59
2022/01/18 00:12:43;;;;;;;18.75;3.25;;;;;;;;;;5047826;28;20058;-58
2022/01/18 00:15:30;;;;;;;15.27;3.47;;;;;;;;;;5047761;28;20161;-53
2022/01/18 00:18:09;;;;;;;28.48;4.70;;;;;;;;;;5047914;28;20049;-56
2022/01/18 00:20:46;;;;;;;27.42;4.18;;;;;;;;;;5049050;28;20048;-51
2022/01/18 00:23:13;;;;;;;14.32;4.22;;;;;;;;;;5031253;28;20053;-52
2022/01/18 00:25:44;;;;;;;20.42;3.95;;;;;;;;;;5048069;28;20071;-53
2022/01/18 00:28:12;;;;;;;16.42;3.55;;;;;;;;;;5047394;28;20045;-56
2022/01/18 00:31:06;;;;;;;21.53;3.70;;;;;;;;;;5047803;28;20053;-51
2022/01/18 00:33:52;;;;;;;18.50;3.60;;;;;;;;;;5047747;28;20052;-58
2022/01/18 00:36:27;;;;;;;10.00;2.88;;;;;;;;;;5047158;28;20041;-53
2022/01/18 00:38:53;;;;;;;18.33;3.70;;;;;;;;;;5047469;28;20053;-54
2022/01/18 00:41:21;;;;;;;11.05;3.03;;;;;;;;;;5047437;28;20168;-55
2022/01/18 00:43:49;;;;;;;15.60;3.13;;;;;;;;;;5047837;28;20054;-56
2022/01/18 00:46:17;;;;;;;18.50;3.35;;;;;;;;;;5046462;28;21012;-55
2022/01/18 00:48:44;;;;;;;19.07;3.13;;;;;;;;;;5048307;28;20056;-57
2022/01/18 00:51:19;;;;;;;12.85;3.17;;;;;;;;;;5049404;28;20315;-56
2022/01/18 00:53:46;;;;;;;20.65;3.67;;;;;;;;;;5047655;28;20053;-59
2022/01/18 00:56:21;;;;;;;24.63;4.40;;;;;;;;;;5047262;28;20078;-52
2022/01/18 00:58:50;;;;;;;18.92;3.47;;;;;;;;;;5046634;28;20064;-57
2022/01/18 01:01:18;;;;;;;13.20;3.88;;;;;;;;;;5055376;22;20049;-54
2022/01/18 01:03:45;;;;;;;22.40;3.35;;;;;;;;;;5054781;28;20131;-58
2022/01/18 01:06:16;;;;;;;19.58;3.92;;;;;;;;;;5051115;28;20079;-60
2022/01/18 01:08:43;;;;;;;18.02;3.75;;;;;;;;;;5069138;28;20068;-55
2022/01/18 01:11:10;;;;;;;15.63;3.33;;;;;;;;;;5062946;28;20037;-56
2022/01/18 01:13:39;;;;;;;24.88;3.60;;;;;;;;;;5059110;28;20063;-56
2022/01/18 01:16:34;;;;;;;25.63;3.55;;;;;;;;;;5048645;28;20040;-55
2022/01/18 01:19:18;;;;;;;17.77;4.03;;;;;;;;;;5070624;28;20080;-56
2022/01/18 01:33:20;;;;;;;14.93;3.22;;;;;;;;;;5062194;28;20053;-59
2022/01/18 01:36:08;;;;;;;14.07;3.30;;;;;;;;;;5067268;28;20053;-58
2022/01/18 01:44:04;;;;;;;21.77;3.92;;;;;;;;;;5047580;28;20041;-59
2022/01/18 01:46:38;;;;;;;17.67;3.28;;;;;;;;;;5049183;28;20051;-58
2022/01/18 01:49:12;;;;;;;29.90;3.72;;;;;;;;;;5066778;28;20055;-58
2022/01/18 01:51:38;;;;;;;26.70;4.00;;;;;;;;;;5068629;28;20120;-58
2022/01/18 01:54:07;;;;;;;24.67;4.15;;;;;;;;;;5062120;28;20060;-59
2022/01/18 01:56:35;;;;;;;24.63;3.88;;;;;;;;;;5068535;28;20044;-59
2022/01/18 01:59:02;;;;;;;29.92;3.65;;;;;;;;;;5062154;28;20083;-58
2022/01/18 02:01:29;;;;;;;30.70;4.45;;;;;;;;;;5070360;28;20056;-59
2022/01/18 02:03:57;;;;;;;24.33;4.25;;;;;;;;;;5066303;28;20063;-58
2022/01/18 02:06:25;;;;;;;31.95;3.85;;;;;;;;;;5072878;28;20075;-55
2022/01/18 02:08:52;;;;;;;29.00;4.50;;;;;;;;;;5066615;28;20102;-60
2022/01/18 02:11:19;;;;;;;32.58;5.32;;;;;;;;;;5073457;28;20059;-57
2022/01/18 02:13:47;;;;;;;16.08;3.75;;;;;;;;;;5065396;28;20054;-57
2022/01/18 02:21:50;;;;;;;27.52;4.45;;;;;;;;;;5072614;28;20769;-57
2022/01/18 02:24:17;;;;;;;23.75;4.50;;;;;;;;;;5063877;28;20072;-60
2022/01/18 02:26:49;;;;;;;25.73;4.55;;;;;;;;;;5070796;28;20062;-56
2022/01/18 02:29:16;;;;;;;31.45;4.22;;;;;;;;;;5064936;28;20071;-57
2022/01/18 02:31:43;;;;;;;26.88;4.45;;;;;;;;;;5072471;28;20048;-58
2022/01/18 02:34:10;;;;;;;23.27;4.40;;;;;;;;;;5066000;28;20049;-59
2022/01/18 02:36:40;;;;;;;18.65;4.13;;;;;;;;;;5072340;28;20048;-59
2022/01/18 02:39:08;;;;;;;13.80;3.28;;;;;;;;;;5065297;28;20036;-58
2022/01/18 02:41:35;;;;;;;18.88;4.03;;;;;;;;;;5072157;28;20049;-54
2022/01/18 02:44:03;;;;;;;23.02;5.18;;;;;;;;;;5064463;28;20053;-57
2022/01/18 02:46:34;;;;;;;22.38;4.30;;;;;;;;;;5071828;28;20048;-55
2022/01/18 02:49:02;;;;;;;25.67;4.07;;;;;;;;;;5070226;28;20095;-52
2022/01/18 02:51:29;;;;;;;16.80;3.55;;;;;;;;;;5076911;28;20049;-52
2022/01/18 02:53:57;;;;;;;16.95;3.40;;;;;;;;;;5075129;28;20048;-52
2022/01/18 02:56:27;;;;;;;15.20;3.47;;;;;;;;;;5065318;28;20048;-60
2022/01/18 02:59:01;;;;;;;10.70;2.92;;;;;;;;;;5069564;28;20048;-56
2022/01/18 03:04:11;;;;;;;15.23;3.38;;;;;;;;;;5071389;28;20052;-59
2022/01/18 03:06:38;;;;;;;13.60;3.10;;;;;;;;;;5063463;28;20094;-55
2022/01/18 03:09:05;;;;;;;12.35;3.22;;;;;;;;;;5069436;28;20053;-53
2022/01/18 03:11:33;;;;;;;17.38;3.30;;;;;;;;;;5064343;28;20079;-57
2022/01/18 03:13:59;;;;;;;12.38;3.50;;;;;;;;;;5056839;28;20052;-53
2022/01/18 03:16:39;;;;;;;19.13;4.00;;;;;;;;;;5056424;28;20106;-57
2022/01/18 03:19:06;;;;;;;20.20;3.83;;;;;;;;;;5071484;28;20052;-55
2022/01/18 03:21:32;;;;;;;14.75;3.47;;;;;;;;;;5065170;28;20079;-60
2022/01/18 03:24:15;;;;;;;13.90;4.30;;;;;;;;;;5071212;28;20057;-59
2022/01/18 03:29:30;;;;;;;16.17;3.65;;;;;;;;;;5071087;28;20041;-57
2022/01/18 03:31:56;;;;;;;18.00;3.95;;;;;;;;;;5064935;28;20051;-59
2022/01/18 03:34:23;;;;;;;15.32;4.30;;;;;;;;;;5071385;28;20132;-54
2022/01/18 03:36:50;;;;;;;18.35;4.35;;;;;;;;;;5064485;28;20053;-57
2022/01/18 03:39:16;;;;;;;20.38;4.43;;;;;;;;;;5070928;28;20047;-52
2022/01/18 03:41:43;;;;;;;24.42;5.30;;;;;;;;;;5059562;28;20041;-55
2022/01/18 03:44:10;;;;;;;17.65;4.55;;;;;;;;;;5051152;28;20088;-54
2022/01/18 03:46:40;;;;;;;17.23;4.72;;;;;;;;;;5048841;28;20059;-53
2022/01/18 03:49:06;;;;;;;13.05;4.25;;;;;;;;;;5071472;28;20075;-54
2022/01/18 03:51:33;;;;;;;20.67;4.97;;;;;;;;;;5064761;28;20140;-52
2022/01/18 03:54:00;;;;;;;16.90;4.47;;;;;;;;;;5070992;28;20056;-53
2022/01/18 03:56:26;;;;;;;16.77;4.22;;;;;;;;;;5071139;28;20048;-52
2022/01/18 03:58:53;;;;;;;17.00;4.85;;;;;;;;;;5064402;28;20044;-55
2022/01/18 04:01:20;;;;;;;20.58;5.63;;;;;;;;;;5070393;28;20094;-54
2022/01/18 04:03:48;;;;;;;17.23;4.63;;;;;;;;;;5064893;28;20114;-53
2022/01/18 04:06:16;;;;;;;16.67;4.90;;;;;;;;;;5071118;28;20044;-54
2022/01/18 04:08:42;;;;;;;17.40;5.50;;;;;;;;;;5064066;28;20063;-55
2022/01/18 04:11:09;;;;;;;16.48;5.22;;;;;;;;;;5069876;28;20348;-56
2022/01/18 04:13:36;;;;;;;18.17;5.22;;;;;;;;;;5054592;28;20056;-57
2022/01/18 04:16:05;;;;;;;16.40;5.20;;;;;;;;;;5050040;28;20114;-52
2022/01/18 04:18:45;;;;;;;15.85;4.90;;;;;;;;;;5051920;28;20059;-55
2022/01/18 04:26:56;;;;;;;15.02;4.43;;;;;;;;;;5069846;28;20121;-54
2022/01/18 04:29:23;;;;;;;12.98;4.15;;;;;;;;;;5063854;28;20139;-56
2022/01/18 04:31:50;;;;;;;16.80;5.43;;;;;;;;;;5069638;28;20079;-56
2022/01/18 04:34:16;;;;;;;18.85;5.88;;;;;;;;;;5063720;28;20052;-56
2022/01/18 04:36:47;;;;;;;18.13;5.72;;;;;;;;;;5070662;28;20139;-55
2022/01/18 04:39:14;;;;;;;13.57;5.18;;;;;;;;;;5063602;28;20102;-51
2022/01/18 04:41:41;;;;;;;18.08;5.25;;;;;;;;;;5067880;28;20059;-55
2022/01/18 04:49:34;;;;;;;11.95;4.07;;;;;;;;;;5060459;28;20059;-55
2022/01/18 04:52:02;;;;;;;12.25;4.30;;;;;;;;;;5067724;28;20389;-52
2022/01/18 04:54:30;;;;;;;12.15;4.40;;;;;;;;;;5063009;28;20040;-52
2022/01/18 04:59:41;;;;;;;13.60;4.53;;;;;;;;;;5063388;28;20049;-53
2022/01/18 05:02:07;;;;;;;15.75;4.72;;;;;;;;;;5067949;28;20046;-53
2022/01/18 05:04:34;;;;;;;14.80;4.90;;;;;;;;;;5063560;28;20055;-56
2022/01/18 05:07:08;;;;;;;12.35;4.22;;;;;;;;;;5069257;28;20094;-52
2022/01/18 05:09:35;;;;;;;13.25;3.90;;;;;;;;;;5062284;28;20452;-53
2022/01/18 05:12:07;;;;;;;13.50;4.45;;;;;;;;;;5067967;28;20056;-53
2022/01/18 05:14:35;;;;;;;17.90;4.43;;;;;;;;;;5050688;28;20088;-54
2022/01/18 05:17:11;;;;;;;14.27;4.35;;;;;;;;;;5062940;28;20064;-52
2022/01/18 05:19:46;;;;;;;12.02;4.68;;;;;;;;;;5069841;28;20053;-55
2022/01/18 05:25:00;;;;;;;13.05;4.00;;;;;;;;;;5067430;28;20121;-51
2022/01/18 05:27:27;;;;;;;12.40;3.55;;;;;;;;;;5062260;28;20075;-56
2022/01/18 05:29:53;;;;;;;14.13;4.55;;;;;;;;;;5067029;28;20072;-56
2022/01/18 05:32:20;;;;;;;11.93;4.00;;;;;;;;;;5061490;28;20132;-58
2022/01/18 05:34:48;;;;;;;13.77;4.30;;;;;;;;;;5068293;28;20340;-52
2022/01/18 05:37:16;;;;;;;13.55;4.65;;;;;;;;;;5062670;28;20044;-54
2022/01/18 05:39:43;;;;;;;19.90;5.47;;;;;;;;;;5068652;28;20106;-55
2022/01/18 05:42:10;;;;;;;13.52;4.40;;;;;;;;;;5061805;28;20445;-52
2022/01/18 05:44:36;;;;;;;13.98;4.38;;;;;;;;;;5069352;28;20048;-57
2022/01/18 05:47:03;;;;;;;18.17;4.72;;;;;;;;;;5062979;28;20053;-58
2022/01/18 05:49:31;;;;;;;13.43;4.25;;;;;;;;;;5069839;28;20135;-56
2022/01/18 05:51:57;;;;;;;11.38;4.25;;;;;;;;;;5063826;28;20129;-55
2022/01/18 05:54:25;;;;;;;15.02;4.85;;;;;;;;;;5075825;28;20060;-55
2022/01/18 05:56:52;;;;;;;13.75;4.70;;;;;;;;;;5065068;28;20053;-55
2022/01/18 05:59:23;;;;;;;15.05;4.28;;;;;;;;;;5066459;28;20139;-57
2022/01/18 06:01:57;;;;;;;11.68;4.53;;;;;;;;;;5063436;28;20063;-56
2022/01/18 06:07:04;;;;;;;11.15;3.88;;;;;;;;;;5064553;28;20056;-56
2022/01/18 06:09:33;;;;;;;15.57;4.05;;;;;;;;;;5071418;28;20071;-57
2022/01/18 06:12:00;;;;;;;14.48;4.45;;;;;;;;;;5064042;28;20062;-56
2022/01/18 06:14:27;;;;;;;11.88;3.90;;;;;;;;;;5070528;28;20057;-58
2022/01/18 06:16:53;;;;;;;11.63;4.07;;;;;;;;;;5072403;28;20060;-56
2022/01/18 06:19:20;;;;;;;13.77;3.58;;;;;;;;;;5063575;28;20067;-59
2022/01/18 06:21:47;;;;;;;11.68;3.58;;;;;;;;;;5072269;28;20059;-53
2022/01/18 06:24:17;;;;;;;11.10;3.65;;;;;;;;;;5065087;28;20051;-54
2022/01/18 06:26:45;;;;;;;13.80;3.92;;;;;;;;;;5070250;28;20182;-56
2022/01/18 06:29:11;;;;;;;20.45;6.88;;;;;;;;;;5063800;28;20048;-58
2022/01/18 06:31:38;;;;;;;24.58;8.38;;;;;;;;;;5070129;28;20049;-58
2022/01/18 06:34:06;;;;;;;16.02;6.22;;;;;;;;;;5063589;28;20098;-56
2022/01/18 06:36:35;;;;;;;13.70;4.43;;;;;;;;;;5070486;28;20072;-55
2022/01/18 06:39:01;;;;;;;16.92;4.70;;;;;;;;;;5063259;28;20055;-53
2022/01/18 06:41:28;;;;;;;12.82;3.97;;;;;;;;;;5071579;28;20040;-57
2022/01/18 06:43:56;;;;;;;13.52;3.83;;;;;;;;;;5063851;28;20052;-55
2022/01/18 06:46:29;;;;;;;11.45;3.83;;;;;;;;;;5072169;28;20067;-58
2022/01/18 06:48:56;;;;;;;14.48;4.43;;;;;;;;;;5067326;28;20060;-55
2022/01/18 06:51:22;;;;;;;11.40;4.03;;;;;;;;;;5082758;28;20476;-56
2022/01/18 06:53:49;;;;;;;20.13;7.18;;;;;;;;;;5068900;28;20057;-56
2022/01/18 06:56:20;;;;;;;30.58;9.27;;;;;;;;;;5073326;28;20056;-57
2022/01/18 06:58:47;;;;;;;15.40;5.85;;;;;;;;;;5064823;28;20059;-58
2022/01/18 07:01:16;;;;;;;12.68;4.40;;;;;;;;;;5048689;28;20111;-56
2022/01/18 07:03:42;;;;;;;12.38;4.00;;;;;;;;;;5051822;28;20053;-53
2022/01/18 07:06:15;;;;;;;10.68;4.15;;;;;;;;;;5063744;28;20090;-57
2022/01/18 07:08:41;;;;;;;10.50;4.30;;;;;;;;;;5071305;28;20135;-54
2022/01/18 07:11:08;;;;;;;10.50;3.08;;;;;;;;;;5063200;28;20059;-56
2022/01/18 07:13:35;;;;;;;7.93;2.63;;;;;;;;;;5061718;28;20071;-54
2022/01/18 07:16:12;;;;;;;9.27;2.67;;;;;;;;;;5060237;28;20113;-54
2022/01/18 07:18:40;;;;;;;11.07;2.85;;;;;;;;;;5071724;28;20060;-53
2022/01/18 07:21:09;;;;;;;7.97;2.35;;;;;;;;;;5065622;28;20049;-57
2022/01/18 07:23:35;;;;;;;8.77;2.85;;;;;;;;;;5072250;28;20092;-57
2022/01/18 07:26:11;;;;;;;9.63;3.05;;;;;;;;;;5072750;28;20056;-57
2022/01/18 07:28:38;;;;;;;10.05;3.47;;;;;;;;;;5072987;28;20516;-57
2022/01/18 07:31:05;;;;;;;12.98;3.85;;;;;;;;;;5061864;28;20052;-54
2022/01/18 07:33:31;;;;;;;10.68;3.30;;;;;;;;;;5070753;28;20049;-56
2022/01/18 07:36:00;;;;;;;12.23;3.13;;;;;;;;;;5063236;28;20048;-59
2022/01/18 07:38:26;;;;;;;9.30;3.45;;;;;;;;;;5069689;28;20052;-54
2022/01/18 07:40:53;;;;;;;10.00;3.08;;;;;;;;;;5063514;28;20106;-55
2022/01/18 07:43:21;;;;;;;9.52;3.10;;;;;;;;;;5069428;28;20048;-57
2022/01/18 07:45:48;;;;;;;10.02;3.22;;;;;;;;;;5057415;28;20052;-53
2022/01/18 07:48:15;;;;;;;9.18;3.45;;;;;;;;;;5069281;28;20133;-52
2022/01/18 07:50:42;;;;;;;9.95;3.40;;;;;;;;;;5070210;28;20482;-55
2022/01/18 07:53:11;;;;;;;12.93;3.53;;;;;;;;;;5065524;28;20094;-54
2022/01/18 07:55:37;;;;;;;;;;;;;;;;;;5069495;28;20072;-56
2022/01/18 07:58:04;;;;;;;7.63;2.47;;;;;;;;;;5061968;28;19925;-55
2022/01/18 08:00:31;;;;;;;10.18;2.83;;;;;;;;;;5069436;28;20052;-52
2022/01/18 08:02:57;;;;;;;9.70;2.97;;;;;;;;;;5062418;28;20264;-56
2022/01/18 08:05:27;;;;;;;7.78;2.78;;;;;;;;;;5068868;28;20060;-55
2022/01/18 08:07:54;;;;;;;12.90;3.60;;;;;;;;;;5061142;28;20061;-54
2022/01/18 08:10:29;;;;;;;13.57;3.50;;;;;;;;;;5069103;28;20053;-57
2022/01/18 08:12:56;;;;;;;11.40;4.10;;;;;;;;;;5058510;28;20041;-55
2022/01/18 08:15:26;;;;;;;12.05;3.90;;;;;;;;;;5050136;28;20049;-55
2022/01/18 08:17:54;;;;;;;11.13;3.90;;;;;;;;;;5052117;28;20139;-56
2022/01/18 08:20:21;;;;;;;9.57;3.58;;;;;;;;;;5085541;28;20114;-52
2022/01/18 08:22:47;;;;;;;12.13;4.40;;;;;;;;;;5063973;28;20044;-54
2022/01/18 08:25:15;;;;;;;13.07;4.30;;;;;;;;;;5069884;28;20060;-56
2022/01/18 08:27:43;;;;;;;10.80;3.97;;;;;;;;;;5061342;28;20299;-59
2022/01/18 08:30:11;;;;;;;10.40;3.70;;;;;;;;;;5065905;28;20139;-56
2022/01/18 08:32:38;;;;;;;11.85;3.75;;;;;;;;;;5061346;28;20041;-59
2022/01/18 08:35:06;;;;;;;11.15;4.03;;;;;;;;;;5067064;28;20044;-55
2022/01/18 08:37:32;;;;;;;9.95;3.83;;;;;;;;;;5066110;28;20075;-51
2022/01/18 08:40:00;;;;;;;11.50;4.43;;;;;;;;;;5082330;28;20055;-56
2022/01/18 08:42:27;;;;;;;13.77;4.30;;;;;;;;;;5069297;28;20127;-56
2022/01/18 08:44:58;;;;;;;13.38;4.05;;;;;;;;;;5063101;28;20056;-56
2022/01/18 08:47:29;;;;;;;10.25;3.63;;;;;;;;;;5070407;28;20121;-51
2022/01/18 08:49:56;;;;;;;10.98;3.72;;;;;;;;;;5063279;28;20072;-53
2022/01/18 08:52:22;;;;;;;8.50;3.70;;;;;;;;;;5070630;28;20057;-55
2022/01/18 08:54:55;;;;;;;10.90;3.88;;;;;;;;;;5065936;28;20052;-56
2022/01/18 08:57:22;;;;;;;11.07;3.67;;;;;;;;;;5076195;28;20056;-59
2022/01/18 08:59:49;;;;;;;11.73;3.95;;;;;;;;;;5062739;28;20102;-52
2022/01/18 09:02:16;;;;;;;8.73;3.50;;;;;;;;;;5069603;28;20106;-52
2022/01/18 09:04:46;;;;;;;8.15;2.83;;;;;;;;;;5063508;28;20071;-57
2022/01/18 09:07:16;;;;;;;6.90;2.55;;;;;;;;;;5070001;28;20069;-56
2022/01/18 09:09:44;;;;;;;9.85;2.60;;;;;;;;;;5062685;28;20052;-57
2022/01/18 09:12:13;;;;;;;9.13;2.60;;;;;;;;;;5065641;28;20052;-52
2022/01/18 09:14:40;;;;;;;9.32;2.83;;;;;;;;;;5048065;28;20402;-56
2022/01/18 09:17:07;;;;;;;8.27;2.55;;;;;;;;;;5068445;28;20049;-51
2022/01/18 09:19:33;;;;;;;7.20;2.80;;;;;;;;;;5062376;28;20094;-57
2022/01/18 09:22:03;;;;;;;10.82;2.60;;;;;;;;;;5068992;28;20056;-54
2022/01/18 09:24:29;;;;;;;5.95;2.13;;;;;;;;;;5061631;28;20049;-57
2022/01/18 09:27:00;;;;;;;6.10;2.33;;;;;;;;;;5069619;28;20100;-57
2022/01/18 09:29:27;;;;;;;6.97;2.40;;;;;;;;;;5068704;28;20048;-57
2022/01/18 09:31:54;;;;;;;6.60;2.25;;;;;;;;;;5061829;28;20059;-53
2022/01/18 09:34:20;;;;;;;4.28;1.60;;;;;;;;;;5068967;28;20049;-59
2022/01/18 09:36:47;;;;;;;7.20;2.60;;;;;;;;;;5062265;28;20055;-56
2022/01/18 09:39:15;;;;;;;5.50;2.05;;;;;;;;;;5069181;28;20059;-59
2022/01/18 09:41:47;;;;;;;8.85;2.45;;;;;;;;;;5062534;28;20049;-53
2022/01/18 09:44:13;;;;;;;6.70;2.67;;;;;;;;;;5068824;28;20127;-52
2022/01/18 09:46:43;;;;;;;9.02;2.60;;;;;;;;;;5062377;28;20048;-56
2022/01/18 09:49:10;;;;;;;9.15;2.90;;;;;;;;;;5068204;28;20067;-55
2022/01/18 09:51:36;;;;;;;9.40;3.00;;;;;;;;;;5062636;28;20056;-59
2022/01/18 09:54:03;;;;;;;7.45;2.53;;;;;;;;;;5068734;28;20072;-55
2022/01/18 09:56:33;;;;;;;8.30;2.50;;;;;;;;;;5052255;28;20083;-59
2022/01/18 09:59:00;;;;;;;9.32;2.58;;;;;;;;;;5047660;28;20049;-58
2022/01/18 10:01:28;;;;;;;5.95;2.33;;;;;;;;;;5046353;28;20090;-55
2022/01/18 10:04:12;;;;;;;5.75;2.25;;;;;;;;;;5067941;28;20048;-56
2022/01/18 10:06:42;;;;;;;6.40;2.28;;;;;;;;;;5059168;28;20049;-55
2022/01/18 10:09:10;;;;;;;5.68;2.15;;;;;;;;;;5058947;28;20052;-53
2022/01/18 10:12:08;;;;;;;6.15;2.42;;;;;;;;;;5062013;28;20052;-54
2022/01/18 10:14:35;;;;;;;6.20;2.22;;;;;;;;;;5049112;28;20088;-55
2022/01/18 10:17:02;;;;;;;6.45;2.42;;;;;;;;;;5046872;28;20048;-58
2022/01/18 10:19:29;;;;;;;8.00;2.90;;;;;;;;;;5068576;28;20110;-53
2022/01/18 10:22:06;;;;;;;6.68;2.65;;;;;;;;;;5064179;28;20056;-53
2022/01/18 10:24:33;;;;;;;7.35;2.63;;;;;;;;;;5073950;28;20052;-56
2022/01/18 10:27:02;;;;;;;5.70;2.40;;;;;;;;;;5072314;28;20060;-55
2022/01/18 10:29:30;;;;;;;7.30;2.15;;;;;;;;;;5076030;28;20068;-54
2022/01/18 10:32:08;;;;;;;4.65;1.88;;;;;;;;;;5072835;28;20067;-55
2022/01/18 10:35:03;;;;;;;8.60;2.30;;;;;;;;;;5072480;28;20082;-56
2022/01/18 10:37:29;;;;;;;8.50;2.00;;;;;;;;;;5063778;28;20059;-58
2022/01/18 10:39:57;;;;;;;8.23;1.95;;;;;;;;;;5070370;28;20052;-56
2022/01/18 10:42:30;;;;;;;6.40;2.10;;;;;;;;;;5069874;28;20049;-56
2022/01/18 10:45:00;;;;;;;8.02;2.42;;;;;;;;;;5064890;28;20061;-55
2022/01/18 10:47:28;;;;;;;8.13;2.70;;;;;;;;;;5071069;28;20060;-58
2022/01/18 10:49:54;;;;;;;7.65;2.63;;;;;;;;;;5064788;28;20044;-57
2022/01/18 10:52:22;;;;;;;5.28;2.00;;;;;;;;;;5070040;28;20045;-55
2022/01/18 10:54:50;;;;;;;7.70;2.37;;;;;;;;;;5064776;28;20128;-55
2022/01/18 10:57:21;;;;;;;6.05;1.90;;;;;;;;;;5071521;28;20298;-56
2022/01/18 10:59:50;;;;;;;6.35;2.67;;;;;;;;;;5063628;28;20088;-56
2022/01/18 11:02:18;;;;;;;9.23;2.35;;;;;;;;;;5069444;28;20098;-53
2022/01/18 11:04:46;;;;;;;6.93;2.40;;;;;;;;;;5063898;28;20063;-59
2022/01/18 11:07:13;;;;;;;;;;;;;;;;;;5071274;28;20139;-57
2022/01/18 11:09:40;;;;;;;5.65;2.38;;;;;;;;;;5063632;28;19966;-54
2022/01/18 11:12:07;;;;;;;8.60;2.53;;;;;;;;;;5070746;28;20143;-56
2022/01/18 11:14:36;;;;;;;12.45;2.83;;;;;;;;;;5053111;28;20046;-55
2022/01/18 11:17:06;;;;;;;11.18;3.67;;;;;;;;;;5070774;28;20101;-56
2022/01/18 11:19:35;;;;;;;8.05;2.78;;;;;;;;;;5063716;28;20052;-56
2022/01/18 11:22:04;;;;;;;8.07;2.90;;;;;;;;;;5071356;28;20052;-56
2022/01/18 11:24:31;;;;;;;12.18;3.33;;;;;;;;;;5064852;28;20135;-56
2022/01/18 11:26:59;;;;;;;10.80;3.47;;;;;;;;;;5068783;28;20056;-51
2022/01/18 11:29:26;;;;;;;;;;;;;;;;;;5062163;28;20060;-57
2022/01/18 11:31:54;;;;;;;8.43;2.83;;;;;;;;;;5069819;28;19924;-55
2022/01/18 11:34:26;;;;;;;7.88;2.78;;;;;;;;;;5069163;28;20060;-55
2022/01/18 11:36:54;;;;;;;11.23;3.80;;;;;;;;;;5067279;28;20056;-55
2022/01/18 11:39:21;;;;;;;;;;;;;;;;;;5070497;28;20094;-56
2022/01/18 11:41:47;;;;;;;9.30;3.08;;;;;;;;;;5062528;28;20001;-56
2022/01/18 11:44:15;;;;;;;9.55;3.50;;;;;;;;;;5068176;28;20552;-57
2022/01/18 11:46:46;;;;;;;12.80;3.97;;;;;;;;;;5062342;28;20056;-53
2022/01/18 11:49:17;;;;;;;10.85;3.53;;;;;;;;;;5069916;28;20102;-53
2022/01/18 11:51:48;;;;;;;10.75;3.33;;;;;;;;;;5063478;28;20048;-54
2022/01/18 11:54:24;;;;;;;8.30;3.03;;;;;;;;;;5069742;28;20163;-56
2022/01/18 11:56:55;;;;;;;9.77;3.50;;;;;;;;;;5064456;28;20048;-55
2022/01/18 11:59:24;;;;;;;11.57;3.67;;;;;;;;;;5076773;28;20049;-54
2022/01/18 12:01:53;;;;;;;13.30;3.42;;;;;;;;;;5063349;28;20056;-55
2022/01/18 12:04:38;;;;;;;9.55;3.20;;;;;;;;;;5050138;28;20049;-59
2022/01/18 12:07:07;;;;;;;6.45;2.65;;;;;;;;;;5055300;28;20044;-55
2022/01/18 12:09:37;;;;;;;14.20;3.75;;;;;;;;;;5069171;28;20052;-56
2022/01/18 12:12:04;;;;;;;11.07;3.90;;;;;;;;;;5061543;28;20048;-56
2022/01/18 12:14:32;;;;;;;12.18;3.75;;;;;;;;;;5042451;28;20056;-57
2022/01/18 12:17:12;;;;;;;11.30;4.03;;;;;;;;;;5051137;28;20053;-58
2022/01/18 12:19:43;;;;;;;14.15;4.00;;;;;;;;;;5068168;28;20130;-56
2022/01/18 12:22:11;;;;;;;12.73;4.13;;;;;;;;;;5061777;28;20044;-59
2022/01/18 12:24:40;;;;;;;14.57;4.95;;;;;;;;;;5069750;28;20430;-55
2022/01/18 12:27:22;;;;;;;17.70;4.90;;;;;;;;;;5062463;28;20075;-55
2022/01/18 12:30:15;;;;;;;14.35;3.83;;;;;;;;;;5068599;28;20055;-52
2022/01/18 12:32:57;;;;;;;8.43;2.70;;;;;;;;;;5056245;28;20113;-55
2022/01/18 12:35:27;;;;;;;11.45;3.42;;;;;;;;;;5069626;28;20135;-52
2022/01/18 12:37:55;;;;;;;9.48;3.55;;;;;;;;;;5060908;28;20052;-55
2022/01/18 12:40:42;;;;;;;11.10;3.90;;;;;;;;;;5068892;28;20082;-55
2022/01/18 12:45:57;;;;;;;18.05;5.05;;;;;;;;;;5067759;28;20045;-56
2022/01/18 12:48:24;;;;;;;9.10;3.10;;;;;;;;;;5062702;28;20049;-55
2022/01/18 12:50:52;;;;;;;7.53;2.80;;;;;;;;;;5068768;28;20044;-54
2022/01/18 12:53:21;;;;;;;17.48;4.45;;;;;;;;;;5060023;28;20044;-58
2022/01/18 12:55:54;;;;;;;12.52;3.97;;;;;;;;;;5068459;28;20059;-54
2022/01/18 12:58:22;;;;;;;16.42;4.55;;;;;;;;;;5060226;28;20075;-54
2022/01/18 13:00:50;;;;;;;18.80;4.35;;;;;;;;;;5069310;28;20068;-54
2022/01/18 13:03:18;;;;;;;11.85;3.63;;;;;;;;;;5062233;28;20052;-58
2022/01/18 13:05:46;;;;;;;21.73;5.40;;;;;;;;;;5068179;28;20068;-56
2022/01/18 13:08:14;;;;;;;11.63;3.92;;;;;;;;;;5061634;28;20040;-58
2022/01/18 13:10:43;;;;;;;29.80;6.10;;;;;;;;;;5068058;28;20056;-55
2022/01/18 13:13:12;;;;;;;29.38;5.82;;;;;;;;;;5068388;28;20056;-56
2022/01/18 13:15:49;;;;;;;13.52;4.13;;;;;;;;;;5062148;28;20118;-59
2022/01/18 13:23:53;;;;;;;20.00;6.45;;;;;;;;;;5044594;28;20062;-57
2022/01/18 13:26:29;;;;;;;23.25;6.75;;;;;;;;;;5048572;28;20045;-57
2022/01/18 13:28:56;;;;;;;15.73;4.90;;;;;;;;;;5048162;28;20055;-59
2022/01/18 13:31:25;;;;;;;13.90;4.68;;;;;;;;;;5072983;28;20048;-56
2022/01/18 13:33:52;;;;;;;19.58;6.15;;;;;;;;;;5069415;28;20066;-56
2022/01/18 13:36:21;;;;;;;34.80;7.43;;;;;;;;;;5061626;28;20053;-59
2022/01/18 13:38:47;;;;;;;32.38;6.68;;;;;;;;;;5068731;28;20052;-57
2022/01/18 13:41:14;;;;;;;30.50;6.90;;;;;;;;;;5060412;28;20041;-56
2022/01/18 13:43:43;;;;;;;26.85;6.55;;;;;;;;;;5067956;28;20045;-56
2022/01/18 13:46:09;;;;;;;20.83;6.80;;;;;;;;;;5061210;28;20058;-56
2022/01/18 13:48:37;;;;;;;19.10;6.15;;;;;;;;;;5067871;28;20049;-54
2022/01/18 13:51:09;;;;;;;22.35;6.25;;;;;;;;;;5059939;28;20053;-56
2022/01/18 13:53:36;;;;;;;20.05;6.47;;;;;;;;;;5068205;28;20060;-52
2022/01/18 13:56:03;;;;;;;20.67;6.15;;;;;;;;;;5051339;28;20406;-57
2022/01/18 13:58:31;;;;;;;12.97;4.93;;;;;;;;;;5052355;28;20052;-56
2022/01/18 14:01:10;;;;;;;17.25;5.35;;;;;;;;;;5052838;28;20395;-56
2022/01/18 14:03:37;;;;;;;20.77;5.80;;;;;;;;;;5070126;28;20494;-56
2022/01/18 14:06:05;;;;;;;20.23;5.72;;;;;;;;;;5065938;28;20044;-57
2022/01/18 14:08:34;;;;;;;25.70;7.88;;;;;;;;;;5070646;28;20138;-56
2022/01/18 14:11:04;;;;;;;13.10;4.82;;;;;;;;;;5064644;28;20072;-54
2022/01/18 14:13:36;;;;;;;12.30;4.35;;;;;;;;;;5062197;28;20147;-54
2022/01/18 14:16:03;;;;;;;13.32;4.47;;;;;;;;;;5047614;28;20067;-58
2022/01/18 14:18:49;;;;;;;22.52;7.00;;;;;;;;;;5071631;28;20059;-59
2022/01/18 14:21:30;;;;;;;25.67;7.40;;;;;;;;;;5065314;28;20048;-55
2022/01/18 14:24:11;;;;;;;29.58;6.82;;;;;;;;;;5072343;28;20052;-55
2022/01/18 14:26:57;;;;;;;15.07;5.03;;;;;;;;;;5065293;28;20067;-57
2022/01/18 14:29:27;;;;;;;30.27;8.30;;;;;;;;;;5059582;28;20091;-54
2022/01/18 14:31:56;;;;;;;18.08;5.85;;;;;;;;;;5065332;28;20052;-56
2022/01/18 14:34:28;;;;;;;26.50;8.35;;;;;;;;;;5071214;28;20139;-58
2022/01/18 14:36:57;;;;;;;21.52;6.40;;;;;;;;;;5065015;28;20113;-57
2022/01/18 14:39:24;;;;;;;;;;;;;;;;;;5073040;28;20044;-52
2022/01/18 14:41:56;;;;;;;23.50;7.38;;;;;;;;;;5065071;28;20034;-55
2022/01/18 14:44:35;;;;;;;25.33;8.32;;;;;;;;;;5069449;28;20059;-56
2022/01/18 14:49:44;;;;;;;26.30;8.70;;;;;;;;;;5069380;28;20071;-59
2022/01/18 14:52:11;;;;;;;30.20;8.05;;;;;;;;;;5065695;28;20060;-54
2022/01/18 14:54:39;;;;;;;42.20;9.20;;;;;;;;;;5070875;28;20325;-53
2022/01/18 14:57:05;;;;;;;34.28;8.50;;;;;;;;;;5071353;28;20052;-56
2022/01/18 14:59:32;;;;;;;25.00;8.68;;;;;;;;;;5065432;28;20053;-53
2022/01/18 15:01:58;;;;;;;25.35;8.75;;;;;;;;;;5078763;28;20052;-56
2022/01/18 15:04:25;;;;;;;23.60;7.63;;;;;;;;;;5067431;28;20067;-57
2022/01/18 15:06:54;;;;;;;18.30;5.97;;;;;;;;;;5071420;28;20112;-59
2022/01/18 15:09:20;;;;;;;20.75;6.97;;;;;;;;;;5063882;28;20052;-59
2022/01/18 15:11:47;;;;;;;17.50;5.85;;;;;;;;;;5071495;28;20067;-59
2022/01/18 15:14:14;;;;;;;21.90;6.82;;;;;;;;;;5065155;28;20048;-54
2022/01/18 15:16:45;;;;;;;24.63;7.80;;;;;;;;;;5071330;28;20052;-59
2022/01/18 15:19:12;;;;;;;24.30;7.35;;;;;;;;;;5064722;28;20044;-56
2022/01/18 15:21:38;;;;;;;30.02;7.85;;;;;;;;;;5070005;28;20294;-59
2022/01/18 15:24:09;;;;;;;22.23;7.18;;;;;;;;;;5062953;28;20112;-58
2022/01/18 15:26:37;;;;;;;22.23;6.75;;;;;;;;;;5070404;28;20060;-53
2022/01/18 15:29:03;;;;;;;17.02;5.80;;;;;;;;;;5063488;28;20053;-58
2022/01/18 15:31:30;;;;;;;24.88;7.10;;;;;;;;;;5069181;28;20053;-53
2022/01/18 15:33:56;;;;;;;24.38;6.45;;;;;;;;;;5064050;28;20106;-56
2022/01/18 15:36:24;;;;;;;18.83;5.72;;;;;;;;;;5070724;28;20143;-54
2022/01/18 15:38:50;;;;;;;20.10;5.57;;;;;;;;;;5070595;28;20072;-56
2022/01/18 15:41:19;;;;;;;19.25;6.15;;;;;;;;;;5062675;28;20052;-58
2022/01/18 15:43:46;;;;;;;20.42;6.05;;;;;;;;;;5071161;28;20162;-56